Airfield :
LOGIN :

Register | Disclaimer

   EN    FR    IT 

 










Legend :    VFR   Marginal VFR   IFR   Intensive IFR   Very Intensive IFR
Visi :
Ceiling :
>= 8 km
>= 3000ft
5 to 8 km
1000 to 3000 ft
1500m to 5 km
500 to 1000 ft
800 to 1500m
200 to 500 ft
< 800m
< 200 ft
Symbols :   Thunderstorms  Fog  Heavy snow  Heavy precipitations  Wind > 20 kt
SIGMETs :     Misc.  Thunderstorms  Icing  Turbulence  Mountain Waves  Volcanic Ashes







- Airport Elevation : 400 ft
- IATA code : BNX


LQBK - Banja Luka

CURRENT METAR :
  • 230630Z 16002KT 7000 SCT047 10/09 Q1025 NOSIG

EXPIRED METARs :
  • 230600Z 17003KT 7000 SCT047 10/09 Q1025 NOSIG
  • 230530Z 15002KT 6000 SCT047 09/09 Q1025 NOSIG
  • 230500Z VRB02KT 6000 SCT045 10/09 Q1024 NOSIG
  • 230430Z VRB02KT 6000 FEW025 OVC045 10/09 Q1024 NOSIG
  • 230400Z 33003KT 6000 SCT026 OVC046 19/09 Q1025 NOSIG

TAF TAF LQBK
Valid from the 23 at 06:00 until the 24 at 06:00 UTC


230500Z 2306/2406 30005KT 9999 FEW025 SCT043 TX13/2313Z TN09/2405Z
No reported NOTAMs for that airfield.



MET'MAP, your aeronautical weather chart ! - Copyright ORBIFLY December 2007 - Disclaimer

ORBIFLY MET'MAP TEAM :

Programming & Development : Alexandra Zaïnal
Concept & Development : Baudouin d'Aumeries
Co-Development & Prog : Marc-Olivier Méhu
Technical & hardware support : Manuel Goepfert

Contact : metmap@orbifly.com




SOURCES & CREDITS :

   NOAA